createdAt,value
2023-04-24T00:02:14.660Z,86.08
2023-04-24T00:04:46.008Z,85.76
2023-04-24T00:07:14.330Z,85.01
2023-04-24T00:09:47.591Z,84.84
2023-04-24T00:12:14.408Z,84.55
2023-04-24T00:14:47.573Z,84.88
2023-04-24T00:17:14.625Z,84.52
2023-04-24T00:19:47.569Z,84.15
2023-04-24T00:22:14.615Z,84.12
2023-04-24T00:24:48.526Z,84.13
2023-04-24T00:27:15.366Z,83.59
2023-04-24T00:29:48.595Z,83.73
2023-04-24T00:32:15.942Z,83.76
2023-04-24T00:34:49.582Z,83.85
2023-04-24T00:37:16.590Z,83.96
2023-04-24T00:39:50.596Z,83.51
2023-04-24T00:42:17.414Z,83.32
2023-04-24T00:44:44.348Z,83.98
2023-04-24T00:47:18.736Z,83.64
2023-04-24T00:49:45.875Z,83.66
2023-04-24T00:52:20.535Z,83.48
2023-04-24T00:54:47.824Z,83.95
2023-04-24T00:57:25.550Z,83.97
2023-04-24T00:59:54.597Z,84.03
2023-04-24T01:02:30.652Z,83.60
2023-04-24T01:04:57.967Z,83.50
2023-04-24T01:07:32.812Z,83.74
2023-04-24T01:10:06.589Z,84.11
2023-04-24T01:12:40.697Z,83.80
2023-04-24T01:15:27.617Z,83.86
2023-04-24T01:18:00.670Z,84.33
2023-04-24T01:20:34.643Z,84.16
2023-04-24T01:23:01.761Z,84.94
2023-04-24T01:25:35.618Z,85.64
2023-04-24T01:28:08.609Z,86.78
2023-04-24T01:30:41.805Z,87.13
2023-04-24T01:33:08.904Z,87.68
2023-04-24T01:35:43.561Z,87.62
2023-04-24T01:38:10.414Z,87.88
2023-04-24T01:40:43.588Z,88.48
2023-04-24T01:43:10.648Z,88.62
2023-04-24T01:45:43.727Z,88.64
2023-04-24T01:48:17.656Z,88.44
2023-04-24T01:50:44.641Z,88.27
2023-04-24T01:53:19.699Z,88.18
2023-04-24T01:55:46.649Z,88.30
2023-04-24T01:58:19.606Z,88.69
2023-04-24T02:00:46.365Z,89.01
2023-04-24T02:03:19.665Z,89.43
2023-04-24T02:05:46.946Z,89.66
2023-04-24T02:08:20.597Z,90.00
2023-04-24T02:10:47.315Z,90.10
2023-04-24T02:13:20.708Z,90.47
2023-04-24T02:16:07.626Z,90.48
2023-04-24T02:18:40.748Z,90.53
2023-04-24T02:21:07.670Z,90.64
2023-04-24T02:23:42.061Z,90.68
2023-04-24T02:26:08.994Z,91.03
2023-04-24T02:28:42.655Z,90.86
2023-04-24T02:31:09.705Z,90.71
2023-04-24T02:33:43.644Z,90.88
2023-04-24T02:36:16.570Z,90.99
2023-04-24T02:38:43.342Z,91.12
2023-04-24T02:41:16.642Z,91.24
2023-04-24T02:43:43.435Z,91.15
2023-04-24T02:46:16.831Z,91.27
2023-04-24T02:48:43.606Z,91.35
2023-04-24T02:51:17.761Z,92.04
2023-04-24T02:53:44.746Z,92.29
2023-04-24T02:56:19.648Z,92.51
2023-04-24T02:58:46.479Z,92.92
2023-04-24T03:01:19.766Z,92.80
2023-04-24T03:03:46.876Z,92.75
2023-04-24T03:06:20.681Z,92.91
2023-04-24T03:08:47.746Z,93.34
2023-04-24T03:11:20.673Z,93.42
2023-04-24T03:13:53.665Z,93.61
2023-04-24T03:16:27.101Z,93.43
2023-04-24T03:19:00.699Z,93.59
2023-04-24T03:21:27.813Z,93.63
2023-04-24T03:24:00.696Z,93.61
2023-04-24T03:26:27.874Z,93.47
2023-04-24T03:29:01.614Z,93.96
2023-04-24T03:31:28.522Z,93.90
2023-04-24T03:34:02.722Z,93.82
2023-04-24T03:36:29.461Z,94.21
2023-04-24T03:39:02.671Z,94.31
2023-04-24T03:41:29.933Z,94.13
2023-04-24T03:44:03.665Z,94.14
2023-04-24T03:46:43.820Z,93.60
2023-04-24T03:49:10.735Z,93.83
2023-04-24T03:51:44.633Z,93.82
2023-04-24T03:54:11.721Z,93.84
2023-04-24T03:56:44.663Z,94.15
2023-04-24T03:59:11.826Z,94.04
2023-04-24T04:01:44.694Z,93.85
2023-04-24T04:04:11.784Z,94.08
2023-04-24T04:06:45.664Z,93.67
2023-04-24T04:09:18.613Z,94.06
2023-04-24T04:11:51.802Z,93.64
2023-04-24T04:14:18.602Z,93.86
2023-04-24T04:16:58.634Z,93.81
2023-04-24T04:19:25.599Z,93.99
2023-04-24T04:22:00.715Z,93.92
2023-04-24T04:24:27.777Z,93.93
2023-04-24T04:26:57.774Z,93.92
2023-04-24T04:29:31.743Z,93.84
2023-04-24T04:31:59.453Z,93.91
2023-04-24T04:34:32.726Z,93.85
2023-04-24T04:37:03.347Z,93.83
2023-04-24T04:39:38.731Z,94.09
2023-04-24T04:42:05.548Z,93.79
2023-04-24T04:44:38.679Z,93.96
2023-04-24T04:47:06.748Z,94.00
2023-04-24T04:49:40.896Z,93.91
2023-04-24T04:52:07.953Z,94.49
2023-04-24T04:54:41.796Z,94.32
2023-04-24T04:57:09.278Z,94.50
2023-04-24T04:59:36.340Z,94.67
2023-04-24T05:02:09.719Z,94.51
2023-04-24T05:04:36.608Z,94.41
2023-04-24T05:07:10.900Z,94.25
2023-04-24T05:09:38.483Z,94.36
2023-04-24T05:12:11.789Z,94.05
2023-04-24T05:14:38.596Z,93.97
2023-04-24T05:17:18.661Z,94.15
2023-04-24T05:19:46.514Z,94.11
2023-04-24T05:22:19.798Z,93.97
2023-04-24T05:24:46.668Z,94.13
2023-04-24T05:27:20.693Z,93.48
2023-04-24T05:29:47.523Z,93.63
2023-04-24T05:32:20.696Z,93.72
2023-04-24T05:34:47.768Z,93.45
2023-04-24T05:37:21.784Z,93.55
2023-04-24T05:39:54.853Z,93.42
2023-04-24T05:42:27.840Z,93.80
2023-04-24T05:45:02.671Z,93.63
2023-04-24T05:47:29.550Z,93.65
2023-04-24T05:50:02.802Z,93.64
2023-04-24T05:52:29.821Z,93.74
2023-04-24T05:55:03.870Z,93.07
2023-04-24T05:57:30.638Z,93.47
2023-04-24T06:00:03.700Z,93.37
2023-04-24T06:02:33.860Z,93.30
2023-04-24T06:05:07.886Z,93.43
2023-04-24T06:07:34.998Z,93.46
2023-04-24T06:10:08.799Z,93.38
2023-04-24T06:12:35.765Z,93.38
2023-04-24T06:15:08.745Z,93.25
2023-04-24T06:17:48.730Z,93.32
2023-04-24T06:20:21.792Z,93.37
2023-04-24T06:22:54.756Z,93.66
2023-04-24T06:25:28.797Z,93.36
2023-04-24T06:27:56.954Z,93.78
2023-04-24T06:30:24.135Z,93.56
2023-04-24T06:33:03.072Z,93.37
2023-04-24T06:35:37.613Z,93.63
2023-04-24T06:38:10.911Z,93.79
2023-04-24T06:40:41.804Z,93.76
2023-04-24T06:43:14.767Z,93.87
2023-04-24T06:45:44.725Z,93.81
2023-04-24T06:48:18.752Z,93.90
2023-04-24T06:50:46.331Z,93.80
2023-04-24T06:53:20.776Z,93.80
2023-04-24T06:55:53.775Z,94.08
2023-04-24T06:58:27.800Z,93.86
2023-04-24T07:01:00.856Z,94.18
2023-04-24T07:03:27.760Z,94.15
2023-04-24T07:06:02.715Z,94.22
2023-04-24T07:08:31.669Z,94.42
2023-04-24T07:11:04.868Z,94.44
2023-04-24T07:13:31.810Z,94.52
2023-04-24T07:16:06.031Z,94.43
2023-04-24T07:18:41.025Z,94.34
2023-04-24T07:21:14.760Z,94.42
2023-04-24T07:23:42.633Z,94.86
2023-04-24T07:26:15.836Z,94.66
2023-04-24T07:28:48.774Z,94.64
2023-04-24T07:31:22.991Z,94.81
2023-04-24T07:33:50.162Z,95.05
2023-04-24T07:36:20.065Z,94.97
2023-04-24T07:38:53.781Z,94.84
2023-04-24T07:41:21.687Z,94.97
2023-04-24T07:43:54.850Z,95.15
2023-04-24T07:46:22.070Z,94.94
2023-04-24T07:49:09.185Z,94.98
2023-04-24T07:51:40.396Z,95.19
2023-04-24T07:54:13.803Z,95.20
2023-04-24T07:56:43.260Z,94.97
2023-04-24T07:59:17.812Z,95.24
2023-04-24T08:01:44.636Z,95.14
2023-04-24T08:04:17.798Z,95.20
2023-04-24T08:06:51.758Z,95.21
2023-04-24T08:09:26.419Z,95.45
2023-04-24T08:12:01.809Z,95.41
2023-04-24T08:14:34.858Z,95.33
2023-04-24T08:17:14.896Z,95.67
2023-04-24T08:19:55.774Z,95.23
2023-04-24T08:22:28.889Z,95.39
2023-04-24T08:25:03.998Z,95.21
2023-04-24T08:27:30.854Z,95.52
2023-04-24T08:29:58.455Z,95.54
2023-04-24T08:32:31.938Z,95.52
2023-04-24T08:34:59.645Z,95.52
2023-04-24T08:37:34.826Z,95.47
2023-04-24T08:40:02.754Z,95.61
2023-04-24T08:42:36.797Z,95.35
2023-04-24T08:45:04.100Z,95.59
2023-04-24T08:47:37.888Z,95.42
2023-04-24T08:50:07.160Z,95.54
2023-04-24T08:52:41.812Z,95.56
2023-04-24T08:55:08.962Z,95.31
2023-04-24T08:57:47.307Z,95.41
2023-04-24T09:00:14.645Z,95.57
2023-04-24T09:02:50.999Z,95.79
2023-04-24T09:05:19.463Z,95.64
2023-04-24T09:07:56.987Z,95.69
2023-04-24T09:10:31.974Z,95.90
2023-04-24T09:13:02.592Z,95.93
2023-04-24T09:15:35.885Z,95.89
2023-04-24T09:18:10.009Z,95.80
2023-04-24T09:21:14.834Z,95.88
2023-04-24T09:23:42.392Z,96.12
2023-04-24T09:26:17.836Z,96.20
2023-04-24T09:28:45.295Z,95.91
2023-04-24T09:31:25.865Z,95.50
2023-04-24T09:33:59.776Z,94.54
2023-04-24T09:36:44.836Z,94.82
2023-04-24T09:39:13.313Z,95.00
2023-04-24T09:41:55.818Z,95.00
2023-04-24T09:44:24.424Z,94.98
2023-04-24T09:47:05.819Z,95.25
2023-04-24T09:49:37.034Z,95.47
2023-04-24T09:52:16.903Z,95.51
2023-04-24T09:55:00.843Z,95.57
2023-04-24T09:57:33.832Z,95.99
2023-04-24T10:00:01.015Z,96.00
2023-04-24T10:02:33.942Z,95.95
2023-04-24T10:05:08.011Z,95.94
2023-04-24T10:07:41.895Z,95.77
2023-04-24T10:10:15.897Z,96.05
2023-04-24T10:12:50.855Z,95.81
2023-04-24T10:15:38.912Z,95.57
2023-04-24T10:18:13.908Z,95.87
2023-04-24T10:20:48.844Z,95.71
2023-04-24T10:23:16.363Z,95.77
2023-04-24T10:25:49.803Z,95.99
2023-04-24T10:28:17.356Z,96.05
2023-04-24T10:30:51.007Z,95.97
2023-04-24T10:33:18.719Z,95.76
2023-04-24T10:35:56.773Z,95.67
2023-04-24T10:38:33.851Z,95.47
2023-04-24T10:41:24.656Z,95.50
2023-04-24T10:44:17.813Z,95.43
2023-04-24T10:46:46.631Z,95.44
2023-04-24T10:49:19.870Z,95.56
2023-04-24T10:51:48.418Z,95.43
2023-04-24T10:54:42.807Z,95.41
2023-04-24T10:57:30.817Z,95.38
2023-04-24T11:00:23.938Z,95.33
2023-04-24T11:03:01.000Z,95.37
2023-04-24T11:06:02.854Z,94.74
2023-04-24T11:08:52.828Z,94.39
2023-04-24T11:11:28.884Z,93.85
2023-04-24T11:14:04.914Z,93.49
2023-04-24T11:17:08.806Z,93.75
2023-04-24T11:19:41.874Z,93.60
2023-04-24T11:22:18.273Z,93.38
2023-04-24T11:24:54.089Z,93.39
2023-04-24T11:27:22.590Z,93.83
2023-04-24T11:30:05.056Z,93.58
2023-04-24T11:32:34.927Z,92.75
2023-04-24T11:35:11.819Z,92.58
2023-04-24T11:38:07.911Z,92.49
2023-04-24T11:40:39.114Z,92.94
2023-04-24T11:43:14.892Z,92.36
2023-04-24T11:45:55.976Z,91.96
2023-04-24T11:48:23.864Z,91.33
2023-04-24T11:50:57.897Z,90.01
2023-04-24T11:53:30.915Z,89.39
2023-04-24T11:55:57.707Z,88.65
2023-04-24T11:58:30.926Z,88.46
2023-04-24T12:01:02.478Z,88.64
2023-04-24T12:03:36.079Z,87.58
2023-04-24T12:06:09.120Z,87.38
2023-04-24T12:08:42.837Z,86.01
2023-04-24T12:11:09.929Z,85.69
2023-04-24T12:13:43.838Z,85.55
2023-04-24T12:16:17.240Z,85.94
2023-04-24T12:18:51.923Z,85.59
2023-04-24T12:21:29.910Z,84.13
2023-04-24T12:23:57.051Z,83.75
2023-04-24T12:26:30.967Z,84.10
2023-04-24T12:29:04.439Z,83.89
2023-04-24T12:31:39.923Z,83.39
2023-04-24T12:34:25.935Z,84.25
2023-04-24T12:36:53.318Z,83.81
2023-04-24T12:39:21.504Z,83.87
2023-04-24T12:42:12.951Z,82.33
2023-04-24T12:44:39.801Z,82.73
2023-04-24T12:47:12.971Z,83.25
2023-04-24T12:49:40.694Z,81.64
2023-04-24T12:52:13.886Z,81.90
2023-04-24T12:54:46.876Z,82.04
2023-04-24T12:57:13.819Z,80.68
2023-04-24T12:59:46.935Z,80.28
2023-04-24T13:02:14.062Z,81.06
2023-04-24T13:04:46.984Z,80.67
2023-04-24T13:07:15.197Z,82.32
2023-04-24T13:09:46.005Z,82.19
2023-04-24T13:12:19.924Z,80.52
2023-04-24T13:14:47.512Z,81.25
2023-04-24T13:17:22.089Z,81.31
2023-04-24T13:19:58.881Z,82.36
2023-04-24T13:22:26.179Z,82.59
2023-04-24T13:24:59.893Z,80.85
2023-04-24T13:27:26.665Z,80.25
2023-04-24T13:29:53.412Z,80.82
2023-04-24T13:32:26.949Z,80.55
2023-04-24T13:34:54.309Z,81.21
2023-04-24T13:37:27.961Z,80.40
2023-04-24T13:39:54.839Z,79.81
2023-04-24T13:42:28.028Z,80.39
2023-04-24T13:44:55.364Z,80.47
2023-04-24T13:47:28.982Z,80.08
2023-04-24T13:49:55.752Z,80.11
2023-04-24T13:52:28.924Z,80.19
2023-04-24T13:54:56.819Z,80.53
2023-04-24T13:57:23.707Z,79.41
2023-04-24T13:59:56.878Z,78.56
2023-04-24T14:02:23.771Z,77.31
2023-04-24T14:04:57.026Z,78.08
2023-04-24T14:07:26.971Z,77.97
2023-04-24T14:09:59.993Z,78.76
2023-04-24T14:12:27.127Z,79.46
2023-04-24T14:15:01.017Z,78.59
2023-04-24T14:17:34.081Z,78.02
2023-04-24T14:20:07.949Z,75.29
2023-04-24T14:22:34.673Z,75.53
2023-04-24T14:25:07.965Z,72.91
2023-04-24T14:27:36.094Z,72.83
2023-04-24T14:30:10.767Z,71.84
2023-04-24T14:32:40.338Z,70.53
2023-04-24T14:35:08.289Z,69.55
2023-04-24T14:37:41.928Z,70.34
2023-04-24T14:40:32.000Z,73.40
2023-04-24T14:43:05.951Z,78.22
2023-04-24T14:45:32.943Z,80.37
2023-04-24T14:48:06.069Z,82.38
2023-04-24T14:50:32.922Z,84.23
2023-04-24T14:53:05.947Z,84.65
2023-04-24T14:55:33.773Z,84.90
2023-04-24T14:58:06.981Z,85.53
2023-04-24T15:00:39.954Z,84.67
2023-04-24T15:03:07.112Z,84.66
2023-04-24T15:05:40.295Z,84.34
2023-04-24T15:08:07.281Z,82.37
2023-04-24T15:10:41.106Z,81.92
2023-04-24T15:13:14.039Z,82.32
2023-04-24T15:15:48.150Z,81.48
2023-04-24T15:18:21.505Z,81.64
2023-04-24T15:20:54.941Z,81.36
2023-04-24T15:23:21.797Z,81.22
2023-04-24T15:25:54.991Z,80.28
2023-04-24T15:28:22.957Z,79.96
2023-04-24T15:30:55.941Z,80.19
2023-04-24T15:33:22.739Z,77.74
2023-04-24T15:35:57.017Z,77.89
2023-04-24T15:38:23.917Z,77.97
2023-04-24T15:40:57.083Z,79.25
2023-04-24T15:43:30.450Z,77.83
2023-04-24T15:52:31.122Z,78.80
2023-04-24T15:55:19.047Z,78.40
2023-04-24T15:57:52.034Z,75.93
2023-04-24T16:00:19.398Z,74.55
2023-04-24T16:02:53.078Z,74.35
2023-04-24T16:05:26.165Z,75.57
2023-04-24T16:07:59.995Z,74.65
2023-04-24T16:10:33.037Z,75.49
2023-04-24T16:13:09.055Z,74.16
2023-04-24T16:15:39.190Z,74.37
2023-04-24T16:18:06.405Z,74.22
2023-04-24T16:20:39.985Z,73.61
2023-04-24T16:23:06.825Z,73.48
2023-04-24T16:25:40.304Z,73.46
2023-04-24T16:28:07.193Z,73.83
2023-04-24T16:30:40.008Z,73.82
2023-04-24T16:33:09.347Z,72.45
2023-04-24T16:35:43.041Z,72.37
2023-04-24T16:38:17.394Z,70.49
2023-04-24T16:40:51.060Z,70.19
2023-04-24T16:43:18.191Z,70.60
2023-04-24T16:45:45.666Z,70.41
2023-04-24T16:48:19.094Z,70.33
2023-04-24T16:50:46.728Z,70.10
2023-04-24T16:53:19.996Z,70.40
2023-04-24T16:55:53.411Z,70.93
2023-04-24T16:58:27.010Z,70.87
2023-04-24T17:01:00.176Z,71.47
2023-04-24T17:03:33.231Z,70.77
2023-04-24T17:06:00.824Z,70.46
2023-04-24T17:08:34.055Z,69.01
2023-04-24T17:11:00.918Z,68.16
2023-04-24T17:13:34.087Z,68.79
2023-04-24T17:16:07.096Z,68.04
2023-04-24T17:18:40.060Z,67.72
2023-04-24T17:21:13.061Z,69.06
2023-04-24T17:23:39.874Z,67.94
2023-04-24T17:26:13.069Z,66.59
2023-04-24T17:28:46.296Z,67.20
2023-04-24T17:31:13.295Z,67.68
2023-04-24T17:33:47.122Z,67.67
2023-04-24T17:36:20.115Z,67.71
2023-04-24T17:38:47.072Z,68.59
2023-04-24T17:41:23.013Z,68.36
2023-04-24T17:43:50.704Z,68.87
2023-04-24T17:46:24.155Z,69.06
2023-04-24T18:05:36.095Z,67.29
2023-04-24T18:08:10.243Z,67.87
2023-04-24T18:10:37.230Z,68.98
2023-04-24T18:13:11.484Z,68.33
2023-04-24T18:15:42.247Z,68.92
2023-04-24T18:18:17.097Z,69.08
2023-04-24T18:20:50.176Z,68.92
2023-04-24T18:23:16.922Z,68.54
2023-04-24T18:25:50.066Z,68.46
2023-04-24T18:28:16.830Z,68.61
2023-04-24T18:30:50.310Z,68.42
2023-04-24T18:33:17.179Z,68.29
2023-04-24T18:35:50.273Z,68.20
2023-04-24T18:38:17.411Z,68.96
2023-04-24T18:40:51.449Z,69.62
2023-04-24T18:43:18.602Z,69.46
2023-04-24T18:45:53.242Z,69.81
2023-04-24T18:48:20.218Z,69.94
2023-04-24T18:50:47.088Z,70.16
2023-04-24T18:53:22.085Z,70.80
2023-04-24T18:55:49.978Z,71.12
2023-04-24T18:58:23.144Z,71.02
2023-04-24T19:00:50.279Z,71.68
2023-04-24T19:03:24.236Z,71.90
2023-04-24T19:05:57.397Z,71.78
2023-04-24T19:08:31.153Z,72.29
2023-04-24T19:10:58.041Z,72.02
2023-04-24T19:13:31.129Z,72.46
2023-04-24T19:15:58.104Z,72.83
2023-04-24T19:18:33.117Z,73.16
2023-04-24T19:21:08.649Z,73.49
2023-04-24T19:23:39.756Z,73.71
2023-04-24T19:26:13.141Z,73.77
2023-04-24T19:28:40.111Z,74.16
2023-04-24T19:31:14.119Z,74.57
2023-04-24T19:33:41.173Z,74.50
2023-04-24T19:36:15.194Z,74.90
2023-04-24T19:38:42.493Z,74.66
2023-04-24T19:41:09.220Z,74.92
2023-04-24T19:43:42.123Z,75.05
2023-04-24T19:46:15.991Z,75.46
2023-04-24T19:48:51.046Z,75.71
2023-04-24T19:51:25.191Z,75.94
2023-04-24T19:53:59.127Z,76.35
2023-04-24T19:56:25.896Z,76.37
2023-04-24T19:58:59.262Z,76.70
2023-04-24T20:01:26.198Z,76.43
2023-04-24T20:04:00.361Z,76.83
2023-04-24T20:06:34.228Z,76.86
2023-04-24T20:09:07.193Z,77.11
2023-04-24T20:11:34.360Z,77.10
2023-04-24T20:14:10.160Z,77.38
2023-04-24T20:17:06.251Z,77.01
2023-04-24T20:19:39.141Z,77.19
2023-04-24T20:22:06.140Z,77.62
2023-04-24T20:24:40.130Z,77.22
2023-04-24T20:27:07.218Z,77.77
2023-04-24T20:29:40.152Z,77.66
2023-04-24T20:32:07.251Z,77.42
2023-04-24T20:34:41.196Z,77.83
2023-04-24T20:37:14.203Z,77.55
2023-04-24T20:39:41.132Z,78.10
2023-04-24T20:42:14.153Z,77.70
2023-04-24T20:44:41.899Z,78.11
2023-04-24T20:47:15.201Z,77.69
2023-04-24T20:49:42.444Z,77.99
2023-04-24T20:52:09.337Z,77.82
2023-04-24T20:54:43.211Z,77.81
2023-04-24T20:57:17.264Z,77.68
2023-04-24T20:59:44.065Z,78.30
2023-04-24T21:02:19.303Z,78.84
2023-04-24T21:04:53.232Z,79.91
2023-04-24T21:07:26.182Z,80.28
2023-04-24T21:09:53.233Z,80.63
2023-04-24T21:12:27.162Z,81.33
2023-04-24T21:15:00.175Z,81.56
2023-04-24T21:17:27.278Z,81.73
2023-04-24T21:20:03.287Z,81.71
2023-04-24T21:22:30.638Z,82.74
2023-04-24T21:25:04.326Z,83.01
2023-04-24T21:27:38.209Z,83.99
2023-04-24T21:30:13.348Z,84.06
2023-04-24T21:32:40.900Z,84.34
2023-04-24T21:35:15.131Z,84.62
2023-04-24T21:37:49.227Z,84.86
2023-04-24T21:40:16.537Z,85.74
2023-04-24T21:42:50.233Z,85.83
2023-04-24T21:45:19.674Z,86.34
2023-04-24T21:47:53.337Z,86.86
2023-04-24T21:50:20.386Z,86.96
2023-04-24T21:52:54.204Z,87.29
2023-04-24T21:55:21.865Z,87.22
2023-04-24T21:57:55.181Z,87.47
2023-04-24T22:00:29.349Z,87.61
2023-04-24T22:03:02.342Z,87.78
2023-04-24T22:05:49.209Z,87.95
2023-04-24T22:08:23.197Z,87.49
2023-04-24T22:10:58.226Z,88.20
2023-04-24T22:13:32.227Z,87.96
2023-04-24T22:15:59.180Z,87.97
2023-04-24T22:18:46.178Z,88.62
2023-04-24T22:21:20.161Z,88.75
2023-04-24T22:23:54.167Z,88.79
2023-04-24T22:26:21.214Z,89.29
2023-04-24T22:28:48.427Z,89.57
2023-04-24T22:31:22.239Z,89.25
2023-04-24T22:33:56.210Z,89.91
2023-04-24T22:36:23.002Z,90.05
2023-04-24T22:38:56.167Z,90.12
2023-04-24T22:41:29.173Z,89.74
2023-04-24T22:43:56.041Z,90.33
2023-04-24T22:46:31.200Z,90.69
2023-04-24T22:48:58.640Z,91.00
2023-04-24T22:51:33.158Z,91.19
2023-04-24T22:54:02.532Z,91.99
2023-04-24T22:56:36.146Z,92.17
2023-04-24T22:59:04.491Z,92.32
2023-04-24T23:01:38.209Z,91.99
2023-04-24T23:04:25.357Z,92.02
2023-04-24T23:06:58.154Z,91.77
2023-04-24T23:09:24.868Z,91.99
2023-04-24T23:11:58.233Z,92.13
2023-04-24T23:14:25.210Z,92.07
2023-04-24T23:16:58.271Z,92.08
2023-04-24T23:19:25.306Z,91.90
2023-04-24T23:21:58.246Z,91.78
2023-04-24T23:24:31.242Z,92.14
2023-04-24T23:26:58.039Z,92.16
2023-04-24T23:29:33.164Z,92.30
2023-04-24T23:32:02.073Z,91.88
2023-04-24T23:34:35.216Z,92.16
2023-04-24T23:37:01.968Z,92.09
2023-04-24T23:39:35.336Z,92.17
2023-04-24T23:42:03.117Z,92.14
2023-04-24T23:44:37.179Z,91.85
2023-04-24T23:47:03.952Z,91.78
2023-04-24T23:49:37.216Z,91.80
2023-04-24T23:52:04.573Z,91.85
2023-04-24T23:54:38.162Z,92.09
2023-04-24T23:57:04.843Z,91.95
2023-04-24T23:59:38.257Z,91.92
